createdAt,value
2018-04-18T00:07:21.041Z,0.00
2018-04-18T00:11:09.810Z,0.00
2018-04-18T00:13:25.513Z,0.00
2018-04-18T00:18:46.420Z,0.00
2018-04-18T00:21:02.562Z,0.00
2018-04-18T00:23:56.539Z,0.00
2018-04-18T00:24:17.701Z,0.00
2018-04-18T00:26:12.261Z,0.00
2018-04-18T00:27:12.682Z,0.00
2018-04-18T00:29:07.248Z,0.00
2018-04-18T00:30:07.697Z,0.00
2018-04-18T00:32:30.518Z,0.00
2018-04-18T00:34:22.742Z,0.00
2018-04-18T00:35:17.412Z,0.00
2018-04-18T00:37:12.966Z,0.00
2018-04-18T00:38:13.384Z,0.00
2018-04-18T00:41:53.322Z,0.00
2018-04-18T00:45:32.581Z,0.00
2018-04-18T00:46:31.250Z,0.00
2018-04-18T00:54:39.122Z,0.00
2018-04-18T00:55:39.560Z,0.00
2018-04-18T00:57:34.128Z,0.00
2018-04-18T00:58:34.549Z,0.00
2018-04-18T01:00:29.116Z,0.00
2018-04-18T01:01:29.546Z,0.00
2018-04-18T01:03:24.111Z,0.00
2018-04-18T01:04:24.535Z,0.00
2018-04-18T01:06:19.093Z,0.00
2018-04-18T01:07:19.523Z,0.00
2018-04-18T01:09:14.090Z,0.00
2018-04-18T01:10:14.515Z,0.00
2018-04-18T01:12:09.081Z,0.00
2018-04-18T01:13:09.502Z,0.00
2018-04-18T01:15:04.065Z,0.00
2018-04-18T01:16:04.490Z,0.00
2018-04-18T01:17:59.061Z,0.00
2018-04-18T01:18:59.481Z,0.00
2018-04-18T01:20:54.031Z,0.00
2018-04-18T01:21:54.465Z,0.00
2018-04-18T01:23:49.103Z,0.00
2018-04-18T01:24:49.517Z,0.00
2018-04-18T01:26:44.088Z,0.00
2018-04-18T01:27:44.510Z,0.00
2018-04-18T01:29:39.077Z,0.00
2018-04-18T01:30:39.500Z,0.00
2018-04-18T01:32:34.067Z,0.00
2018-04-18T01:33:34.492Z,0.00
2018-04-18T01:35:29.053Z,0.00
2018-04-18T01:36:29.486Z,0.00
2018-04-18T01:38:24.071Z,0.00
2018-04-18T01:39:24.488Z,0.00
2018-04-18T01:41:19.044Z,0.00
2018-04-18T01:42:19.478Z,0.00
2018-04-18T01:44:14.050Z,0.00
2018-04-18T01:45:14.476Z,0.00
2018-04-18T01:47:09.046Z,0.00
2018-04-18T01:48:09.464Z,0.00
2018-04-18T01:50:04.023Z,0.00
2018-04-18T01:51:04.460Z,0.00
2018-04-18T01:53:00.035Z,0.00
2018-04-18T01:54:00.443Z,0.00
2018-04-18T01:55:55.989Z,0.00
2018-04-18T01:56:56.419Z,0.00
2018-04-18T01:58:51.980Z,0.00
2018-04-18T01:59:52.389Z,0.00
2018-04-18T02:01:46.952Z,0.00
2018-04-18T02:02:47.378Z,0.00
2018-04-18T02:04:41.942Z,0.00
2018-04-18T02:05:42.368Z,0.00
2018-04-18T02:07:36.936Z,0.00
2018-04-18T02:08:37.359Z,0.00
2018-04-18T02:10:31.910Z,0.00
2018-04-18T02:11:32.345Z,0.00
2018-04-18T02:13:26.905Z,0.00
2018-04-18T02:14:27.327Z,0.00
2018-04-18T02:16:21.886Z,0.00
2018-04-18T02:17:22.312Z,0.00
2018-04-18T02:19:16.868Z,0.00
2018-04-18T02:20:17.288Z,0.00
2018-04-18T02:22:11.853Z,0.00
2018-04-18T02:23:12.288Z,0.00
2018-04-18T02:25:06.852Z,0.00
2018-04-18T02:26:07.273Z,0.00
2018-04-18T02:28:01.846Z,0.00
2018-04-18T02:29:02.271Z,0.00
2018-04-18T02:30:02.884Z,0.00
2018-04-18T02:31:03.136Z,0.00
2018-04-18T02:32:03.558Z,0.00
2018-04-18T02:33:03.985Z,0.00
2018-04-18T02:34:04.418Z,0.00
2018-04-18T02:35:04.844Z,0.00
2018-04-18T02:36:05.272Z,0.00
2018-04-18T02:37:05.707Z,0.00
2018-04-18T02:38:06.141Z,0.00
2018-04-18T02:39:06.560Z,0.00
2018-04-18T02:40:06.988Z,0.00
2018-04-18T02:41:07.419Z,0.00
2018-04-18T02:42:07.849Z,0.00
2018-04-18T02:43:08.279Z,0.00
2018-04-18T02:44:08.705Z,0.00
2018-04-18T02:45:09.136Z,0.00
2018-04-18T02:46:09.578Z,0.00
2018-04-18T02:47:09.992Z,0.00
2018-04-18T02:48:10.426Z,0.00
2018-04-18T02:49:10.849Z,0.00
2018-04-18T02:50:11.284Z,0.00
2018-04-18T02:51:11.705Z,0.00
2018-04-18T02:52:12.140Z,0.00
2018-04-18T02:53:12.571Z,0.00
2018-04-18T02:54:12.995Z,0.00
2018-04-18T02:55:13.425Z,0.00
2018-04-18T02:56:13.855Z,0.00
2018-04-18T02:57:14.281Z,0.00
2018-04-18T02:58:14.730Z,0.00
2018-04-18T02:59:15.136Z,0.00
2018-04-18T03:00:15.574Z,0.00
2018-04-18T03:01:16.005Z,0.00
2018-04-18T03:02:16.425Z,0.00
2018-04-18T03:03:16.860Z,0.00
2018-04-18T03:04:17.292Z,0.00
2018-04-18T03:05:17.711Z,0.00
2018-04-18T03:06:18.140Z,0.00
2018-04-18T03:07:18.569Z,0.00
2018-04-18T03:08:19.003Z,0.00
2018-04-18T03:09:19.433Z,0.00
2018-04-18T03:10:19.857Z,0.00
2018-04-18T03:11:20.283Z,0.00
2018-04-18T03:12:21.544Z,0.00
2018-04-18T03:13:21.140Z,0.00
2018-04-18T03:14:21.572Z,0.00
2018-04-18T03:15:22.001Z,0.00
2018-04-18T03:16:22.433Z,0.00
2018-04-18T03:17:22.856Z,0.00
2018-04-18T03:18:23.293Z,0.00
2018-04-18T03:19:23.716Z,0.00
2018-04-18T03:20:24.149Z,0.00
2018-04-18T03:21:24.573Z,0.00
2018-04-18T03:22:25.002Z,0.00
2018-04-18T03:23:25.440Z,0.00
2018-04-18T03:24:25.858Z,0.00
2018-04-18T03:25:26.287Z,0.00
2018-04-18T03:26:26.728Z,0.00
2018-04-18T03:27:27.148Z,0.00
2018-04-18T03:28:27.585Z,0.00
2018-04-18T03:29:28.005Z,0.00
2018-04-18T03:30:28.434Z,0.00
2018-04-18T03:31:28.859Z,0.00
2018-04-18T03:32:29.297Z,0.00
2018-04-18T03:33:29.723Z,0.00
2018-04-18T03:34:30.151Z,0.00
2018-04-18T03:35:30.590Z,0.00
2018-04-18T03:36:31.003Z,0.00
2018-04-18T03:37:31.432Z,0.00
2018-04-18T03:38:31.863Z,0.00
2018-04-18T03:39:32.292Z,0.00
2018-04-18T03:40:32.727Z,0.00
2018-04-18T03:41:33.154Z,0.00
2018-04-18T03:42:33.583Z,0.00
2018-04-18T03:43:34.006Z,0.00
2018-04-18T03:44:34.431Z,0.00
2018-04-18T03:45:34.911Z,0.00
2018-04-18T03:46:35.297Z,0.00
2018-04-18T03:47:35.723Z,0.00
2018-04-18T03:48:36.144Z,0.00
2018-04-18T03:49:36.584Z,0.00
2018-04-18T03:50:37.009Z,0.00
2018-04-18T03:51:37.432Z,0.00
2018-04-18T03:52:37.866Z,0.00
2018-04-18T03:53:38.288Z,0.00
2018-04-18T03:54:38.720Z,0.00
2018-04-18T03:55:39.149Z,0.00
2018-04-18T03:56:39.577Z,0.00
2018-04-18T03:57:40.009Z,5.63
2018-04-18T03:58:40.436Z,5.63
2018-04-18T03:59:40.863Z,5.63
2018-04-18T04:00:41.299Z,5.63
2018-04-18T04:01:41.717Z,5.63
2018-04-18T04:02:42.152Z,5.63
2018-04-18T04:03:42.578Z,5.63
2018-04-18T04:04:43.011Z,11.25
2018-04-18T04:05:43.440Z,11.25
2018-04-18T04:06:43.862Z,11.25
2018-04-18T04:07:44.295Z,11.25
2018-04-18T04:08:44.725Z,11.25
2018-04-18T04:09:45.149Z,11.25
2018-04-18T04:10:45.575Z,11.25
2018-04-18T04:11:46.004Z,16.88
2018-04-18T04:12:46.430Z,16.88
2018-04-18T04:13:46.866Z,16.88
2018-04-18T04:14:47.301Z,16.88
2018-04-18T04:15:47.720Z,16.88
2018-04-18T04:16:48.147Z,22.50
2018-04-18T04:17:48.576Z,22.50
2018-04-18T04:18:49.010Z,22.50
2018-04-18T04:19:49.433Z,22.50
2018-04-18T04:20:49.866Z,22.50
2018-04-18T04:21:50.292Z,28.13
2018-04-18T04:22:50.747Z,28.13
2018-04-18T04:23:51.149Z,28.13
2018-04-18T04:24:51.583Z,28.13
2018-04-18T04:25:52.005Z,28.13
2018-04-18T04:26:52.442Z,33.75
2018-04-18T04:27:52.860Z,33.75
2018-04-18T04:28:53.293Z,33.75
2018-04-18T04:29:53.720Z,33.75
2018-04-18T04:30:54.155Z,39.38
2018-04-18T04:31:54.575Z,39.38
2018-04-18T04:32:55.007Z,39.38
2018-04-18T04:33:55.434Z,39.38
2018-04-18T04:34:55.868Z,45.00
2018-04-18T04:35:56.291Z,45.00
2018-04-18T04:36:56.720Z,45.00
2018-04-18T04:37:57.148Z,45.00
2018-04-18T04:38:57.579Z,50.63
2018-04-18T04:39:58.012Z,50.63
2018-04-18T04:40:58.446Z,50.63
2018-04-18T04:41:58.869Z,50.63
2018-04-18T04:42:59.295Z,56.25
2018-04-18T04:43:59.730Z,56.25
2018-04-18T04:45:00.177Z,61.88
2018-04-18T04:46:00.601Z,61.88
2018-04-18T04:47:01.042Z,61.88
2018-04-18T04:48:01.459Z,61.88
2018-04-18T04:49:01.871Z,67.50
2018-04-18T04:50:02.295Z,67.50
2018-04-18T04:51:02.727Z,73.13
2018-04-18T04:52:03.152Z,73.13
2018-04-18T04:53:03.585Z,78.75
2018-04-18T04:54:04.019Z,78.75
2018-04-18T04:55:04.443Z,78.75
2018-04-18T04:56:04.861Z,78.75
2018-04-18T04:57:05.301Z,78.75
2018-04-18T04:58:05.725Z,78.75
2018-04-18T04:59:06.157Z,78.75
2018-04-18T05:00:06.580Z,78.75
2018-04-18T05:01:07.011Z,84.38
2018-04-18T05:02:07.442Z,84.38
2018-04-18T05:03:07.868Z,90.00
2018-04-18T05:04:08.299Z,90.00
2018-04-18T05:05:08.734Z,95.63
2018-04-18T05:06:09.161Z,95.63
2018-04-18T05:07:09.584Z,101.25
2018-04-18T05:08:24.646Z,101.25
2018-04-18T05:09:10.440Z,101.25
2018-04-18T05:10:10.871Z,101.25
2018-04-18T05:11:11.308Z,106.88
2018-04-18T05:12:11.726Z,106.88
2018-04-18T05:13:40.144Z,106.88
2018-04-18T05:14:12.715Z,112.50
2018-04-18T05:15:13.025Z,112.50
2018-04-18T05:16:13.442Z,118.13
2018-04-18T05:17:13.874Z,118.13
2018-04-18T05:18:14.306Z,123.75
2018-04-18T05:19:14.732Z,123.75
2018-04-18T05:20:15.162Z,123.75
2018-04-18T05:21:15.627Z,123.75
2018-04-18T05:22:16.020Z,129.38
2018-04-18T05:23:16.450Z,129.38
2018-04-18T05:24:16.879Z,135.00
2018-04-18T05:25:17.309Z,135.00
2018-04-18T05:26:17.742Z,135.00
2018-04-18T05:27:18.163Z,140.63
2018-04-18T05:28:18.594Z,140.63
2018-04-18T05:29:19.060Z,140.63
2018-04-18T05:30:19.504Z,146.25
2018-04-18T05:31:19.887Z,146.25
2018-04-18T05:32:20.316Z,146.25
2018-04-18T05:33:20.746Z,146.25
2018-04-18T05:34:21.166Z,151.88
2018-04-18T05:35:21.599Z,151.88
2018-04-18T05:36:22.026Z,151.88
2018-04-18T05:38:55.598Z,140.63
2018-04-18T05:39:56.018Z,157.50
2018-04-18T05:43:25.639Z,168.75
2018-04-18T05:46:00.419Z,174.38
2018-04-18T05:47:00.580Z,174.38
2018-04-18T05:48:55.123Z,174.38
2018-04-18T05:49:55.570Z,180.00
2018-04-18T05:51:51.103Z,180.00
2018-04-18T05:54:07.090Z,180.00
2018-04-18T05:55:06.227Z,185.63
2018-04-18T05:57:00.795Z,191.25
2018-04-18T05:59:37.663Z,196.88
2018-04-18T06:01:54.506Z,202.50
2018-04-18T06:02:32.644Z,208.13
2018-04-18T06:07:35.346Z,219.38
2018-04-18T06:08:35.772Z,225.00
2018-04-18T06:10:30.325Z,230.63
2018-04-18T06:11:30.762Z,230.63
2018-04-18T06:13:27.094Z,236.25
2018-04-18T06:14:25.795Z,241.88
2018-04-18T06:16:21.337Z,247.50
2018-04-18T06:17:21.763Z,247.50
2018-04-18T06:19:17.327Z,253.13
2018-04-18T06:20:17.749Z,258.75
2018-04-18T06:22:24.096Z,264.38
2018-04-18T06:23:13.726Z,264.38
2018-04-18T06:28:16.458Z,286.88
2018-04-18T06:29:16.886Z,286.88
2018-04-18T06:31:33.718Z,292.50
2018-04-18T06:33:26.188Z,303.75
2018-04-18T06:34:26.618Z,303.75
2018-04-18T06:36:21.181Z,309.38
2018-04-18T06:37:21.610Z,315.00
2018-04-18T06:39:17.181Z,320.63
2018-04-18T06:40:17.601Z,320.63
2018-04-18T06:42:12.712Z,326.25
2018-04-18T06:43:13.106Z,331.88
2018-04-18T06:45:08.710Z,343.13
2018-04-18T06:46:09.122Z,348.75
2018-04-18T06:48:03.732Z,354.38
2018-04-18T06:49:04.156Z,360.00
2018-04-18T06:50:59.720Z,376.88
2018-04-18T06:52:00.152Z,382.50
2018-04-18T06:53:55.711Z,393.75
2018-04-18T06:54:56.137Z,399.38
2018-04-18T06:56:51.687Z,399.38
2018-04-18T06:57:52.154Z,405.00
2018-04-18T06:59:46.699Z,416.25
2018-04-18T07:00:47.151Z,421.88
2018-04-18T07:01:47.566Z,427.50
2018-04-18T07:02:48.006Z,427.50
2018-04-18T07:03:48.429Z,438.75
2018-04-18T07:04:48.862Z,433.13
2018-04-18T07:08:55.482Z,444.38
2018-04-18T07:09:55.913Z,455.63
2018-04-18T07:11:50.469Z,461.25
2018-04-18T07:14:05.210Z,483.75
2018-04-18T07:15:05.634Z,495.00
2018-04-18T07:17:01.188Z,506.25
2018-04-18T07:19:16.903Z,517.50
2018-04-18T07:20:17.343Z,523.13
2018-04-18T07:22:12.896Z,534.38
2018-04-18T07:23:13.330Z,540.00
2018-04-18T07:25:07.900Z,551.25
2018-04-18T07:26:08.332Z,562.50
2018-04-18T07:28:02.905Z,573.75
2018-04-18T07:29:03.335Z,585.00
2018-04-18T07:30:57.908Z,590.63
2018-04-18T07:31:58.350Z,596.25
2018-04-18T07:33:52.922Z,624.38
2018-04-18T07:34:53.366Z,641.25
2018-04-18T07:35:53.801Z,652.50
2018-04-18T07:36:54.240Z,675.00
2018-04-18T07:37:54.694Z,736.88
2018-04-18T07:38:55.123Z,1119.38
2018-04-18T07:39:55.568Z,1676.25
2018-04-18T07:40:56.011Z,1884.38
2018-04-18T07:41:56.464Z,1895.63
2018-04-18T07:42:56.901Z,1929.38
2018-04-18T07:43:57.336Z,1946.25
2018-04-18T07:45:12.710Z,2002.50
2018-04-18T07:45:58.237Z,2058.75
2018-04-18T07:46:58.692Z,2053.13
2018-04-18T07:47:59.126Z,2030.63
2018-04-18T07:48:59.581Z,1856.25
2018-04-18T07:50:00.022Z,1715.63
2018-04-18T07:51:00.474Z,1839.38
2018-04-18T07:52:00.928Z,2008.13
2018-04-18T07:53:04.196Z,2064.38
2018-04-18T07:54:22.984Z,1890.00
2018-04-18T07:56:36.406Z,2210.63
2018-04-18T07:59:22.419Z,2221.88
2018-04-18T08:01:34.204Z,2126.25
2018-04-18T08:03:20.711Z,1906.88
2018-04-18T08:04:21.168Z,1833.75
2018-04-18T08:06:16.025Z,1951.88
2018-04-18T08:08:30.541Z,2131.88
2018-04-18T08:11:26.313Z,2092.50
2018-04-18T08:13:19.890Z,2452.50
2018-04-18T08:14:20.343Z,2475.00
2018-04-18T08:19:39.996Z,2323.13
2018-04-18T08:29:22.249Z,2503.13
2018-04-18T08:33:10.181Z,2733.75
2018-04-18T08:35:28.932Z,2013.75
2018-04-18T08:38:03.757Z,2655.00
2018-04-18T08:39:04.193Z,2733.75
2018-04-18T08:40:58.837Z,2908.13
2018-04-18T08:42:02.046Z,2784.38
2018-04-18T08:43:53.907Z,2570.63
2018-04-18T08:44:54.389Z,2671.88
2018-04-18T08:46:53.241Z,2891.25
2018-04-18T08:47:51.232Z,2790.00
2018-04-18T08:50:13.829Z,2587.50
2018-04-18T08:50:46.251Z,2593.13
2018-04-18T08:52:41.171Z,2649.38
2018-04-18T08:53:41.642Z,2705.63
2018-04-18T08:56:15.017Z,2761.88
2018-04-18T08:58:12.209Z,2784.38
2018-04-18T08:58:51.545Z,2756.25
2018-04-18T09:01:00.387Z,2705.63
2018-04-18T09:01:46.595Z,2694.38
2018-04-18T09:03:41.246Z,2452.50
2018-04-18T09:07:35.236Z,2835.00
2018-04-18T09:08:45.617Z,2851.88
2018-04-18T09:09:53.904Z,2891.25
2018-04-18T09:10:35.424Z,2930.63
2018-04-18T09:11:52.924Z,2908.13
2018-04-18T09:12:31.533Z,2885.63
2018-04-18T09:13:33.942Z,2846.25
2018-04-18T09:14:32.467Z,2840.63
2018-04-18T09:15:32.944Z,2829.38
2018-04-18T09:16:33.403Z,2767.50
2018-04-18T09:17:33.881Z,2711.25
2018-04-18T09:18:34.339Z,2660.63
2018-04-18T09:19:45.418Z,2638.13
2018-04-18T09:20:35.271Z,2615.63
2018-04-18T09:21:36.417Z,2761.88
2018-04-18T09:22:40.913Z,2818.13
2018-04-18T09:23:36.675Z,2885.63
2018-04-18T09:24:37.143Z,2896.88
2018-04-18T09:25:37.613Z,2885.63
2018-04-18T09:26:38.075Z,2874.38
2018-04-18T09:27:38.542Z,2857.50
2018-04-18T09:28:39.015Z,2784.38
2018-04-18T09:29:39.478Z,2784.38
2018-04-18T09:30:39.966Z,2846.25
2018-04-18T09:31:40.422Z,2913.75
2018-04-18T09:32:40.905Z,2919.38
2018-04-18T09:33:41.390Z,2857.50
2018-04-18T09:34:41.839Z,2840.63
2018-04-18T09:35:42.293Z,2694.38
2018-04-18T09:36:42.763Z,2109.38
2018-04-18T09:37:43.231Z,2160.00
2018-04-18T09:38:43.702Z,2368.13
2018-04-18T09:39:44.216Z,2430.00
2018-04-18T09:40:44.644Z,2761.88
2018-04-18T09:41:45.103Z,2823.75
2018-04-18T09:42:45.572Z,2840.63
2018-04-18T09:43:46.047Z,2863.13
2018-04-18T09:44:46.518Z,2936.25
2018-04-18T09:45:46.984Z,2964.38
2018-04-18T09:46:47.445Z,2953.13
2018-04-18T09:47:47.917Z,2958.75
2018-04-18T09:48:48.384Z,2958.75
2018-04-18T09:49:48.854Z,3071.25
2018-04-18T09:50:49.941Z,3043.13
2018-04-18T09:52:11.957Z,3031.88
2018-04-18T09:52:56.950Z,3144.38
2018-04-18T09:53:50.772Z,3138.75
2018-04-18T09:56:24.422Z,3121.88
2018-04-18T09:57:26.691Z,3071.25
2018-04-18T09:59:19.515Z,3020.63
2018-04-18T10:00:19.956Z,3076.88
2018-04-18T10:08:42.374Z,3234.38
2018-04-18T10:12:36.247Z,3127.50
2018-04-18T10:16:11.840Z,3200.63
2018-04-18T10:18:18.823Z,3161.25
2018-04-18T10:20:54.824Z,2964.38
2018-04-18T10:22:56.241Z,3037.50
2018-04-18T10:23:48.938Z,3060.00
2018-04-18T10:32:14.414Z,855.00
2018-04-18T10:35:46.895Z,2998.13
2018-04-18T10:37:05.803Z,2975.63
2018-04-18T10:44:29.925Z,3116.25
2018-04-18T10:46:13.509Z,2863.13
2018-04-18T10:47:13.978Z,2863.13
2018-04-18T10:55:37.426Z,2896.88
2018-04-18T10:59:36.419Z,3009.38
2018-04-18T11:06:43.224Z,3037.50
2018-04-18T11:07:04.941Z,3015.00
2018-04-18T11:09:00.085Z,2919.38
2018-04-18T11:11:26.147Z,3015.00
2018-04-18T11:18:31.403Z,2587.50
2018-04-18T11:22:33.448Z,2643.75
2018-04-18T11:22:58.690Z,2638.13
2018-04-18T11:25:29.609Z,2109.38
2018-04-18T11:29:01.058Z,2565.00
2018-04-18T11:35:36.602Z,2435.63
2018-04-18T11:36:37.069Z,2458.13
2018-04-18T11:38:31.796Z,1479.38
2018-04-18T11:39:32.265Z,540.00
2018-04-18T11:41:48.090Z,506.25
2018-04-18T11:43:41.727Z,483.75
2018-04-18T11:44:42.199Z,478.13
2018-04-18T11:46:37.830Z,478.13
2018-04-18T11:48:58.354Z,472.50
2018-04-18T11:54:14.692Z,461.25
2018-04-18T11:55:15.115Z,455.63
2018-04-18T11:57:09.740Z,444.38
2018-04-18T11:58:10.248Z,438.75
2018-04-18T12:00:04.806Z,427.50
2018-04-18T12:01:05.281Z,427.50
2018-04-18T12:02:59.901Z,421.88
2018-04-18T12:04:00.323Z,421.88
2018-04-18T12:05:00.773Z,416.25
2018-04-18T12:06:01.221Z,410.63
2018-04-18T12:07:01.683Z,410.63
2018-04-18T12:08:02.133Z,405.00
2018-04-18T12:09:02.584Z,399.38
2018-04-18T12:11:36.232Z,393.75
2018-04-18T12:12:36.600Z,393.75
2018-04-18T12:14:31.203Z,382.50
2018-04-18T12:15:31.670Z,382.50
2018-04-18T12:17:27.230Z,393.75
2018-04-18T12:18:27.672Z,393.75
2018-04-18T12:20:22.277Z,376.88
2018-04-18T12:21:22.720Z,371.25
2018-04-18T12:23:17.330Z,376.88
2018-04-18T12:24:17.811Z,382.50
2018-04-18T12:27:45.473Z,360.00
2018-04-18T12:28:45.912Z,360.00
2018-04-18T12:30:40.511Z,343.13
2018-04-18T12:31:40.954Z,343.13
2018-04-18T12:33:35.547Z,354.38
2018-04-18T12:34:38.790Z,348.75
2018-04-18T12:35:36.436Z,348.75
2018-04-18T12:36:36.901Z,348.75
2018-04-18T12:37:37.333Z,348.75
2018-04-18T12:38:37.776Z,343.13
2018-04-18T12:39:52.795Z,343.13
2018-04-18T12:40:38.675Z,337.50
2018-04-18T12:41:39.122Z,337.50
2018-04-18T12:42:39.570Z,343.13
2018-04-18T12:43:40.018Z,331.88
2018-04-18T12:44:40.469Z,331.88
2018-04-18T12:45:41.178Z,326.25
2018-04-18T12:46:41.362Z,326.25
2018-04-18T12:47:41.808Z,326.25
2018-04-18T12:48:42.257Z,326.25
2018-04-18T12:49:42.699Z,326.25
2018-04-18T12:50:43.143Z,326.25
2018-04-18T12:51:43.592Z,320.63
2018-04-18T12:52:44.037Z,315.00
2018-04-18T12:53:44.482Z,315.00
2018-04-18T12:54:44.937Z,315.00
2018-04-18T12:55:45.388Z,315.00
2018-04-18T12:56:45.847Z,315.00
2018-04-18T12:57:46.272Z,315.00
2018-04-18T12:58:46.720Z,315.00
2018-04-18T12:59:47.165Z,315.00
2018-04-18T13:00:47.613Z,315.00
2018-04-18T13:01:48.058Z,315.00
2018-04-18T13:02:48.506Z,315.00
2018-04-18T13:03:48.954Z,315.00
2018-04-18T13:04:50.309Z,309.38
2018-04-18T13:05:54.834Z,309.38
2018-04-18T13:06:50.299Z,309.38
2018-04-18T13:07:50.740Z,303.75
2018-04-18T13:08:51.193Z,303.75
2018-04-18T13:09:51.630Z,298.13
2018-04-18T13:10:52.110Z,292.50
2018-04-18T13:11:52.527Z,298.13
2018-04-18T13:12:52.970Z,292.50
2018-04-18T13:13:53.419Z,292.50
2018-04-18T13:14:53.866Z,292.50
2018-04-18T13:15:56.817Z,292.50
2018-04-18T13:16:54.759Z,286.88
2018-04-18T13:17:55.205Z,286.88
2018-04-18T13:18:55.650Z,292.50
2018-04-18T13:19:56.101Z,286.88
2018-04-18T13:20:56.540Z,286.88
2018-04-18T13:21:57.003Z,281.25
2018-04-18T13:22:57.433Z,286.88
2018-04-18T13:23:57.883Z,281.25
2018-04-18T13:25:05.338Z,281.25
2018-04-18T13:25:58.794Z,275.63
2018-04-18T13:26:59.223Z,281.25
2018-04-18T13:27:59.667Z,275.63
2018-04-18T13:29:00.112Z,275.63
2018-04-18T13:30:00.558Z,270.00
2018-04-18T13:31:01.028Z,275.63
2018-04-18T13:32:01.452Z,270.00
2018-04-18T13:33:01.897Z,270.00
2018-04-18T13:34:02.346Z,270.00
2018-04-18T13:35:02.814Z,270.00
2018-04-18T13:37:36.365Z,270.00
2018-04-18T13:38:36.794Z,270.00
2018-04-18T13:41:03.682Z,264.38
2018-04-18T13:42:47.114Z,258.75
2018-04-18T13:43:47.597Z,258.75
2018-04-18T13:45:42.178Z,258.75
2018-04-18T13:46:42.580Z,258.75
2018-04-18T13:48:38.157Z,253.13
2018-04-18T13:49:38.638Z,253.13
2018-04-18T13:50:39.032Z,253.13
2018-04-18T13:51:39.496Z,253.13
2018-04-18T13:52:39.930Z,247.50
2018-04-18T13:53:42.920Z,247.50
2018-04-18T13:54:40.854Z,247.50
2018-04-18T13:55:41.268Z,247.50
2018-04-18T13:56:41.782Z,247.50
2018-04-18T13:57:42.167Z,247.50
2018-04-18T13:58:42.606Z,241.88
2018-04-18T13:59:43.051Z,241.88
2018-04-18T14:00:43.499Z,241.88
2018-04-18T14:01:43.948Z,241.88
2018-04-18T14:02:44.395Z,241.88
2018-04-18T14:04:20.925Z,236.25
2018-04-18T14:04:45.286Z,236.25
2018-04-18T14:05:45.732Z,236.25
2018-04-18T14:06:46.177Z,236.25
2018-04-18T14:07:46.637Z,230.63
2018-04-18T14:08:47.083Z,230.63
2018-04-18T14:09:48.425Z,236.25
2018-04-18T14:11:02.931Z,236.25
2018-04-18T14:11:48.409Z,230.63
2018-04-18T14:12:48.851Z,230.63
2018-04-18T14:13:49.297Z,230.63
2018-04-18T14:14:49.741Z,230.63
2018-04-18T14:15:50.197Z,225.00
2018-04-18T14:16:50.641Z,225.00
2018-04-18T14:17:51.149Z,225.00
2018-04-18T14:18:51.542Z,225.00
2018-04-18T14:19:52.053Z,225.00
2018-04-18T14:20:52.474Z,225.00
2018-04-18T14:21:52.870Z,225.00
2018-04-18T14:22:53.326Z,225.00
2018-04-18T14:23:53.763Z,225.00
2018-04-18T14:25:17.952Z,225.00
2018-04-18T14:25:54.662Z,225.00
2018-04-18T14:27:01.941Z,225.00
2018-04-18T14:27:55.591Z,225.00
2018-04-18T14:28:55.998Z,219.38
2018-04-18T14:30:11.477Z,225.00
2018-04-18T14:30:56.888Z,219.38
2018-04-18T14:31:57.346Z,219.38
2018-04-18T14:32:57.782Z,219.38
2018-04-18T14:33:58.235Z,219.38
2018-04-18T14:34:58.811Z,219.38
2018-04-18T14:35:59.127Z,219.38
2018-04-18T14:36:59.850Z,219.38
2018-04-18T14:38:00.016Z,219.38
2018-04-18T14:39:00.458Z,219.38
2018-04-18T14:40:00.910Z,219.38
2018-04-18T14:41:15.949Z,219.38
2018-04-18T14:42:29.959Z,219.38
2018-04-18T14:43:04.950Z,213.75
2018-04-18T14:44:26.453Z,213.75
2018-04-18T14:45:39.020Z,213.75
2018-04-18T14:46:10.489Z,213.75
2018-04-18T14:47:04.035Z,213.75
2018-04-18T14:48:04.476Z,213.75
2018-04-18T14:49:04.921Z,208.13
2018-04-18T14:50:05.370Z,208.13
2018-04-18T14:51:05.816Z,208.13
2018-04-18T14:52:06.266Z,208.13
2018-04-18T14:53:06.715Z,208.13
2018-04-18T14:54:07.155Z,202.50
2018-04-18T14:55:07.605Z,202.50
2018-04-18T14:56:08.049Z,202.50
2018-04-18T14:57:08.502Z,202.50
2018-04-18T14:58:08.938Z,202.50
2018-04-18T14:59:09.388Z,202.50
2018-04-18T15:00:09.834Z,202.50
2018-04-18T15:01:31.444Z,196.88
2018-04-18T15:02:10.732Z,196.88
2018-04-18T15:03:14.010Z,196.88
2018-04-18T15:04:18.468Z,196.88
2018-04-18T15:05:12.079Z,196.88
2018-04-18T15:06:12.517Z,196.88
2018-04-18T15:07:12.955Z,196.88
2018-04-18T15:08:13.401Z,191.25
2018-04-18T15:09:13.849Z,191.25
2018-04-18T15:10:14.293Z,191.25
2018-04-18T15:11:14.745Z,191.25
2018-04-18T15:12:15.190Z,191.25
2018-04-18T15:13:18.462Z,185.63
2018-04-18T15:14:30.967Z,185.63
2018-04-18T15:16:49.653Z,180.00
2018-04-18T15:17:52.931Z,180.00
2018-04-18T15:19:44.686Z,180.00
2018-04-18T15:20:45.199Z,185.63
2018-04-18T15:22:39.765Z,180.00
2018-04-18T15:23:40.177Z,180.00
2018-04-18T15:25:34.802Z,174.38
2018-04-18T15:27:50.501Z,174.38
2018-04-18T15:30:06.248Z,168.75
2018-04-18T15:32:21.009Z,168.75
2018-04-18T15:33:22.238Z,168.75
2018-04-18T15:35:16.042Z,168.75
2018-04-18T15:36:16.484Z,163.13
2018-04-18T15:39:45.155Z,163.13
2018-04-18T15:40:45.592Z,163.13
2018-04-18T15:43:04.451Z,163.13
2018-04-18T15:48:01.178Z,157.50
2018-04-18T15:49:01.621Z,157.50
2018-04-18T15:50:59.478Z,151.88
2018-04-18T15:53:29.260Z,151.88
2018-04-18T15:55:25.889Z,146.25
2018-04-18T15:57:40.644Z,146.25
2018-04-18T15:58:41.108Z,140.63
2018-04-18T16:00:35.676Z,140.63
2018-04-18T16:01:36.112Z,140.63
2018-04-18T16:03:45.963Z,135.00
2018-04-18T16:07:19.554Z,129.38
2018-04-18T16:08:20.116Z,129.38
2018-04-18T16:10:15.345Z,129.38
2018-04-18T16:12:30.318Z,123.75
2018-04-18T16:13:30.791Z,123.75
2018-04-18T16:15:26.620Z,123.75
2018-04-18T16:16:25.806Z,123.75
2018-04-18T16:18:21.416Z,118.13
2018-04-18T16:20:57.325Z,118.13
2018-04-18T16:21:36.599Z,112.50
2018-04-18T16:24:06.447Z,112.50
2018-04-18T16:27:20.037Z,106.88
2018-04-18T16:28:20.662Z,106.88
2018-04-18T16:30:16.091Z,106.88
2018-04-18T16:31:19.454Z,106.88
2018-04-18T16:33:11.110Z,106.88
2018-04-18T16:34:11.553Z,106.88
2018-04-18T16:36:41.430Z,101.25
2018-04-18T16:38:20.916Z,101.25
2018-04-18T16:39:24.162Z,95.63
2018-04-18T16:41:38.722Z,95.63
2018-04-18T16:42:16.408Z,95.63
2018-04-18T16:49:11.520Z,84.38
2018-04-18T16:49:50.944Z,84.38
2018-04-18T16:53:21.779Z,78.75
2018-04-18T16:54:18.932Z,78.75
2018-04-18T16:56:13.544Z,78.75
2018-04-18T16:57:14.006Z,78.75
2018-04-18T16:59:08.554Z,73.13
2018-04-18T17:00:09.012Z,73.13
2018-04-18T17:02:07.565Z,73.13
2018-04-18T17:03:08.017Z,73.13
2018-04-18T17:04:08.437Z,73.13
2018-04-18T17:05:08.887Z,67.50
2018-04-18T17:06:09.335Z,67.50
2018-04-18T17:07:09.772Z,67.50
2018-04-18T17:08:10.218Z,67.50
2018-04-18T17:09:10.655Z,61.88
2018-04-18T17:10:11.107Z,61.88
2018-04-18T17:11:11.544Z,61.88
2018-04-18T17:12:11.992Z,61.88
2018-04-18T17:13:12.432Z,61.88
2018-04-18T17:14:12.878Z,61.88
2018-04-18T17:15:34.483Z,56.25
2018-04-18T17:16:28.345Z,56.25
2018-04-18T17:18:47.334Z,56.25
2018-04-18T17:19:47.769Z,50.63
2018-04-18T17:21:42.363Z,50.63
2018-04-18T17:22:42.810Z,50.63
2018-04-18T17:24:37.404Z,45.00
2018-04-18T17:26:52.134Z,45.00
2018-04-18T17:27:52.570Z,45.00
2018-04-18T17:30:08.416Z,39.38
2018-04-18T17:30:47.664Z,39.38
2018-04-18T17:32:44.012Z,39.38
2018-04-18T17:33:45.497Z,39.38
2018-04-18T17:35:39.979Z,33.75
2018-04-18T17:36:37.754Z,33.75
2018-04-18T17:40:06.270Z,33.75
2018-04-18T17:42:48.419Z,28.13
2018-04-18T17:44:34.916Z,28.13
2018-04-18T17:45:35.346Z,28.13
2018-04-18T17:46:35.789Z,22.50
2018-04-18T17:47:51.244Z,22.50
2018-04-18T17:48:41.711Z,22.50
2018-04-18T17:49:37.123Z,22.50
2018-04-18T17:50:37.576Z,22.50
2018-04-18T17:51:38.004Z,22.50
2018-04-18T17:52:38.495Z,16.88
2018-04-18T17:53:38.890Z,16.88
2018-04-18T17:55:00.494Z,16.88
2018-04-18T17:55:39.872Z,16.88
2018-04-18T17:56:40.223Z,16.88
2018-04-18T17:58:01.846Z,11.25
2018-04-18T17:59:17.160Z,11.25